Fairview Valley, Nevada Weather observations

Data are for observation ending at time listed.
 Day   Time    Ave.   Ave.  Ave.  Vector   Max.   Stn.    Total    Solar   Ave.   Ave.    #1       #2
  of    of     Air    Rel.  Wind   Wind    Wind   Baro.  Precip.   Rad.    Soil   Vis.   Cloud   Cloud
Year   Day     Temp.  Hum.  Speed  Dir.    Gust   Pres.                    Temp.          Ceil    Ceil
2015   (PST)    F      %     mph   deg.    mph     mb.     in.     W/m2     F     (km)   k ft.   k ft.
------------------------------------------------------------------------------------------------------
  63    2:00  999.0   999  999.0   999    999.0    999    999.00     999   999.0   999.0  999.0  999.0
  63    2:10  999.0   999  999.0   999    999.0    999    999.00     999   999.0   999.0  999.0  999.0
  63    2:20  999.0   999  999.0   999    999.0    999    999.00     999   999.0   999.0  999.0  999.0
  63    2:30  999.0   999  999.0   999    999.0    999    999.00     999   999.0   999.0  999.0  999.0
  63    2:40  999.0   999  999.0   999    999.0    999    999.00     999   999.0   999.0  999.0  999.0
  63    2:50  999.0   999  999.0   999    999.0    999    999.00     999   999.0   999.0  999.0  999.0
  63    3:00  999.0   999  999.0   999    999.0    999    999.00     999   999.0   999.0  999.0  999.0
  63    3:10  999.0   999  999.0   999    999.0    999    999.00     999   999.0   999.0  999.0  999.0
  63    3:20  999.0   999  999.0   999    999.0    999    999.00     999   999.0   999.0  999.0  999.0
  63    3:30  999.0   999  999.0   999    999.0    999    999.00     999   999.0   999.0  999.0  999.0
  63    3:40  999.0   999  999.0   999    999.0    999    999.00     999   999.0   999.0  999.0  999.0
  63    3:50  999.0   999  999.0   999    999.0    999    999.00     999   999.0   999.0  999.0  999.0
  63    4:00  999.0   999  999.0   999    999.0    999    999.00     999   999.0   999.0  999.0  999.0
  63    4:10  999.0   999  999.0   999    999.0    999    999.00     999   999.0   999.0  999.0  999.0
  63    4:20  999.0   999  999.0   999    999.0    999    999.00     999   999.0   999.0  999.0  999.0
  63    4:30  999.0   999  999.0   999    999.0    999    999.00     999   999.0   999.0  999.0  999.0
  63    4:40  999.0   999  999.0   999    999.0    999    999.00     999   999.0   999.0  999.0  999.0
  63    4:50  999.0   999  999.0   999    999.0    999    999.00     999   999.0   999.0  999.0  999.0
  63    5:00  999.0   999  999.0   999    999.0    999    999.00     999   999.0   999.0  999.0  999.0
  63    5:10  999.0   999  999.0   999    999.0    999    999.00     999   999.0   999.0  999.0  999.0
  63    5:20  999.0   999  999.0   999    999.0    999    999.00     999   999.0   999.0  999.0  999.0
  63    5:30  999.0   999  999.0   999    999.0    999    999.00     999   999.0   999.0  999.0  999.0
  63    5:40  999.0   999  999.0   999    999.0    999    999.00     999   999.0   999.0  999.0  999.0
  63    5:50   16.9    88    0.6   223      2.4    875     0.00       0    38.2   999.0    0.0  999.0
  63    6:00  999.0   999  999.0   999    999.0    999    999.00     999   999.0   999.0  999.0  999.0
  63    6:10  999.0   999  999.0   999    999.0    999    999.00     999   999.0   999.0  999.0  999.0
  63    6:20  999.0   999  999.0   999    999.0    999    999.00     999   999.0   999.0  999.0  999.0
  63    6:30  999.0   999  999.0   999    999.0    999    999.00     999   999.0   999.0  999.0  999.0
  63    6:40  999.0   999  999.0   999    999.0    999    999.00     999   999.0   999.0  999.0  999.0
  63    6:50   18.3    86    5.4   165      5.9    876     0.00      50    37.6   999.0    0.0  999.0
  63    7:00   19.3    84    4.1   168      5.0    876     0.00      84    37.5   999.0    0.0  999.0
  63    7:10   19.4    82    1.1   196      2.7    876     0.00     124    37.4   999.0    0.0  999.0
  63    7:20   19.7    83    1.9   196      2.9    876     0.00     160    37.4   999.0    0.0  999.0
  63    7:30   21.6    80    1.7   210      2.8    876     0.00     191    37.3   999.0    0.0  999.0
  63    7:40   22.4    79    1.9   233      3.4    876     0.00     220    37.2   999.0    0.0  999.0
  63    7:50   22.2    79    2.0   253      3.4    876     0.00     250    37.2   999.0    0.0  999.0
  63    8:00   23.4    78    0.9   252      3.2    877     0.00     279    37.1   999.0    0.0  999.0
  63    8:10   24.9    76    1.1   234      2.6    877     0.00     300    37.0   999.0    0.0  999.0
  63    8:20   26.9    72    1.6   228      3.6    877     0.00     336    37.0   999.0    0.0  999.0
  63    8:30   27.4    70    1.6   221      3.1    877     0.00     328    36.9   999.0    0.0  999.0
  63    8:40   29.1    64    1.3   209      3.0    877     0.00     390    36.8   999.0    0.0  999.0
  63    8:50   29.8    62    0.6   222      1.8    877     0.00     420    36.8   999.0    0.0  999.0
  63    9:00   32.6    56    0.0   249      1.3    877     0.00     453    36.8   999.0    0.0  999.0
  63    9:10   34.1    52    0.1   192      1.8    877     0.00     488    36.8   999.0    0.0  999.0
  63    9:20   35.5    47    0.8   187      2.5    877     0.00     496    36.7   999.0    0.0  999.0
  63    9:30   36.2    44    0.7   166      3.9    877     0.00     482    36.7   999.0    0.0  999.0
  63    9:40   37.2    42    0.1   120      1.8    877     0.00     536    36.7   999.0    0.0  999.0
  63    9:50   38.8    38    0.1    65      2.7    877     0.00     585    36.8   999.0    0.0  999.0
  63   10:00   39.2    37    0.9   234      3.1    878     0.00     605    36.8   999.0    0.0  999.0
  63   10:10   38.4    38    1.6   289      4.2    877     0.00     622    36.8   999.0    0.0  999.0
  63   10:20   39.4    36    0.9   310      3.4    877     0.00     642    36.7   999.0    0.0  999.0
  63   10:30   39.2    33    1.6   311      4.0    877     0.00     658    36.7   999.0    0.0  999.0
  63   10:40   40.3    32    1.3   333      4.1    877     0.00     674    36.7   999.0    0.0  999.0
  63   10:50   41.4    31    0.1    58      2.0    877     0.00     690    36.7   999.0    0.0  999.0
  63   11:00   42.6    29    1.5   208      4.6    877     0.00     703    36.7   999.0    0.0  999.0
  63   11:10   43.4    28    0.8   131      3.7    877     0.00     716    36.7   999.0    0.0  999.0
  63   11:20   43.4    27    0.9   136      3.7    877     0.00     729    36.7   999.0    0.0  999.0
  63   11:30   43.8    27    3.4    17      6.9    877     0.00     741    36.7   999.0    0.0  999.0
  63   11:40   43.4    26    1.9    23      5.8    877     0.00     725    36.7   999.0    0.0  999.0
  63   11:50   44.1    26    2.2   336      5.4    877     0.00     742    36.7   999.0    0.0  999.0
  63   12:00   44.1    26    4.0    63      7.7    877     0.00     744    36.6   999.0    0.0  999.0
  63   12:10   44.2    26    2.3   360      5.6    877     0.00     764    36.6   999.0    0.0  999.0
  63   12:20   44.4    25    2.6   257      5.1    877     0.00     736    36.6   999.0    0.0  999.0
  63   12:30   44.4    25    2.5   306      7.6    877     0.00     742    36.7   999.0    0.0  999.0
  63   12:40   45.5    24    2.3   358      7.4    877     0.00     733    36.8   999.0    0.0  999.0
  63   12:50   45.6    24    4.1    40      7.9    877     0.00     692    37.0   999.0    0.0  999.0
  63   13:00   45.5    24    2.6    54      7.2    876     0.00     711    37.2   999.0    0.0  999.0
  63   13:10   46.4    23    2.0   214      4.2    876     0.00     687    37.4   999.0    0.0  999.0
  63   13:20   46.7    21    2.1   201      6.6    876     0.00     666    37.6   999.0    0.0  999.0
  63   13:30   46.7    21    3.1   357      8.0    876     0.00     692    37.9   999.0    0.0  999.0
  63   13:40   46.7    21    3.2    83      5.8    876     0.00     671    38.2   999.0    0.0  999.0
  63   13:50   47.6    21    1.8   311      5.0    876     0.00     637    38.6   999.0    0.0  999.0
  63   14:00   47.5    21    3.7   343      6.2    876     0.00     627    38.9   999.0    0.0  999.0
  63   14:10   47.8    21    2.2    29      4.2    876     0.00     610    39.2   999.0    0.0  999.0
  63   14:20   48.4    21    2.2   304      5.2    876     0.00     617    39.6   999.0    0.0  999.0
  63   14:30   48.8    20    4.3    66      8.3    876     0.00     585    40.0   999.0    0.0  999.0
  63   14:40   49.2    19    2.0    68      6.1    876     0.00     564    40.4   999.0    0.0  999.0
  63   14:50   50.1    19    3.8    66      8.5    876     0.00     545    40.7   999.0    0.0  999.0
  63   15:00   48.8    21    5.5    13      9.7    876     0.00     519    41.1   999.0    0.0  999.0
  63   15:10   48.9    21    6.1    36     10.3    876     0.00     479    41.5   999.0    0.0  999.0
  63   15:20   48.9    20    5.0    10      8.2    876     0.00     454    41.9   999.0    0.0  999.0
  63   15:30   48.9    20    3.4    52      6.6    876     0.00     431    42.3   999.0    0.0  999.0
  63   15:40   49.5    20    3.7    76      6.6    876     0.00     402    42.6   999.0    0.0  999.0
  63   15:50   49.5    20    5.7    28     11.2    876     0.00     366    43.0   999.0    0.0  999.0
  63   16:00   49.0    20    5.5    28     10.4    876     0.00     336    43.3   999.0    0.0  999.0
  63   16:10   49.2    20    5.0    12      9.6    876     0.00     307    43.6   999.0    0.0  999.0
  63   16:20   49.4    20    5.4    30      9.0    876     0.00     276    44.0   999.0    0.0  999.0
  63   16:30   49.0    20    5.6    14      8.7    876     0.00     244    44.3   999.0    0.0  999.0
  63   16:40   48.8    20    4.6    36      7.2    876     0.00     213    44.6   999.0    0.0  999.0
  63   16:50   48.6    20    4.5    11      7.5    876     0.00     179    44.9   999.0    0.0  999.0
  63   17:00   48.1    21    5.4    31      7.4    876     0.00     148    45.1   999.0    0.0  999.0
  63   17:10   47.7    21    5.4    26      7.2    876     0.00     115    45.4   999.0    0.0  999.0
  63   17:20   47.3    22    5.6    31      7.0    876     0.00      76    45.6   999.0    0.0  999.0
  63   17:30   46.5    22    6.2    31      7.5    876     0.00      43    45.8   999.0    0.0  999.0
  63   17:40   45.4    24    5.5    28      6.7    876     0.00      20    45.9   999.0    0.0  999.0
  63   17:50   44.1    26    5.0    29      5.9    876     0.00       7    46.1   999.0    0.0  999.0
  63   18:00   42.8    28    5.2    33      5.8    877     0.00       2    46.2   999.0    0.0  999.0
  63   18:10   41.5    30    5.7    38      7.0    877     0.00       0    46.2   999.0    0.0  999.0
  63   18:20   40.4    32    6.0    26      7.6    877     0.00       0    46.2   999.0    0.0  999.0
  63   18:30   38.7    35    5.4    17      7.4    877     0.00       0    46.2   999.0    0.0  999.0
  63   18:40   37.9    37    6.2    12      9.1    877     0.00       0    46.2   999.0    0.0  999.0
  63   18:50   37.1    38    7.5    10      9.8    877     0.00       0    46.1   999.0    0.0  999.0
  63   19:00   36.8    37    7.9     4     10.7    877     0.00       0    46.1   999.0    0.0  999.0
  63   19:10   36.8    36    7.7     4     10.4    878     0.00       0    46.0   999.0    0.0  999.0
  63   19:20   36.3    37    6.2    21     13.2    878     0.00       0    45.9   999.0    0.0  999.0
  63   19:30   38.1    33    6.6    20     11.5    878     0.00       0    45.8   999.0    0.0  999.0
  63   19:40   37.5    35    5.1    35      7.2    878     0.00       0    45.7   999.0    0.0  999.0
  63   19:50   36.9    35    3.6    39      5.2    878     0.00       0    45.5   999.0    0.0  999.0
  63   20:00   36.6    35    3.3    49      5.2    878     0.00       0    45.4   999.0    0.0  999.0
  63   20:10   35.9    37    4.5    56      5.6    878     0.00       0    45.2   999.0    0.0  999.0
  63   20:20   35.3    39    2.0   337      6.2    878     0.00       0    45.1   999.0    0.0  999.0
  63   20:30   35.5    38    0.2   338      1.7    878     0.00       0    45.0   999.0    0.0  999.0
  63   20:40   35.3    38    0.0     0      0.0    878     0.00       0    44.8   999.0    0.0  999.0
  63   20:50   34.3    40    0.9   202      2.3    879     0.00       0    44.6   999.0    0.0  999.0
  63   21:00   32.1    43    2.5   201      3.6    879     0.00       0    44.5   999.0    0.0  999.0
  63   21:10   32.4    42    2.1   217      3.1    879     0.00       0    44.3   999.0    0.0  999.0
  63   21:20   31.2    46    1.8   261      2.8    879     0.00       0    44.2   999.0    0.0  999.0
  63   21:30   30.0    49    1.3   264      3.1    879     0.00       0    44.0   999.0    0.0  999.0
  63   21:40   30.4    49    2.8   278      3.7    879     0.00       0    43.8   999.0    0.0  999.0
  63   21:50   29.4    52    4.0   300      5.0    879     0.00       0    43.7   999.0    0.0  999.0
  63   22:00   28.7    55    1.4   300      4.2    879     0.00       0    43.5   999.0    0.0  999.0
  63   22:10   27.5    58    1.4    71      3.4    879     0.00       0    43.3   999.0    0.0  999.0
  63   22:20   27.8    56    1.6    87      3.4    879     0.00       0    43.1   999.0    0.0  999.0
  63   22:30   28.9    53    2.5    96      3.4    879     0.00       0    43.0   999.0    0.0  999.0
  63   22:40   30.5    49    0.5   100      2.3    879     0.00       0    42.9   2050.0    0.0  999.0
  63   22:50   32.3    45    0.0     0      0.0    879     0.00       0    42.7   999.0    0.0  999.0
  63   23:00   28.6    56    1.6   266      2.9    879     0.00       0    42.5   999.0    0.0  999.0
  63   23:10  999.0   999  999.0   999    999.0    999    999.00     999   999.0   999.0  999.0  999.0
  63   23:20  999.0   999  999.0   999    999.0    999    999.00     999   999.0   999.0  999.0  999.0
  63   23:30  999.0   999  999.0   999    999.0    999    999.00     999   999.0   999.0  999.0  999.0
  63   23:40  572.9     5  2150.0     0      4.0    628    52.50   63000    42.7     6.5   12.8  999.0
  63   23:50   27.1    61    1.0   211      3.6    880     0.00       0    41.8   999.0    0.0  999.0
  64    0:00   25.0    65    4.2   182      5.0    880     0.00       0    41.6   999.0    0.0  999.0
  64    0:10   24.5    66    4.3   182      5.0    880     0.00       0    41.5   999.0    0.0  999.0
  64    0:20  4082.0     0    1.7   206     63.0    677     0.00       0    32.0    45.0    6.0  999.0
  64    0:30  999.0   999  999.0   999    999.0    999    999.00     999   999.0   999.0  999.0  999.0
  64    0:40  999.0   999  999.0   999    999.0    999    999.00     999   999.0   999.0  999.0  999.0
  64    0:50   25.4    62    4.1   175      5.3    880     0.00       0    40.9   999.0    0.0  999.0
  64    1:00   24.7    64    0.3   183      1.6    880     0.00       0    40.8   -68.2   63.0  999.0
  64    1:10  999.0   999  999.0   999    999.0    999    999.00     999   999.0   999.0  999.0  999.0
  64    1:20  999.0   999  999.0   999    999.0    999    999.00     999   999.0   999.0  999.0  999.0
  64    1:30  999.0   999  999.0   999    999.0    999    999.00     999   999.0   999.0  999.0  999.0
  64    1:40  999.0   999  999.0   999    999.0    999    999.00     999   999.0   999.0  999.0  999.0
  64    1:50   22.4    71    3.9   169      5.2    880     0.00       0    40.2   999.0    0.0  999.0

Return to Fairview Valley graphs page.


Western Regional Climate Center,wrcc@dri.edu